sensor_id;sensor_type;location;lat;lon;timestamp;P1;durP1;ratioP1;P2;durP2;ratioP2
795;SDS011;381;48.770;9.188;2022-12-18T00:02:45;49.40;;;36.30;;
795;SDS011;381;48.770;9.188;2022-12-18T00:07:49;53.00;;;39.63;;
795;SDS011;381;48.770;9.188;2022-12-18T00:12:51;53.23;;;39.80;;
795;SDS011;381;48.770;9.188;2022-12-18T00:17:53;53.20;;;39.23;;
795;SDS011;381;48.770;9.188;2022-12-18T00:22:56;48.53;;;36.13;;
795;SDS011;381;48.770;9.188;2022-12-18T00:27:58;59.13;;;43.83;;
795;SDS011;381;48.770;9.188;2022-12-18T00:33:00;61.03;;;42.83;;
795;SDS011;381;48.770;9.188;2022-12-18T00:38:04;54.57;;;38.97;;
795;SDS011;381;48.770;9.188;2022-12-18T00:43:09;50.43;;;38.33;;
795;SDS011;381;48.770;9.188;2022-12-18T00:48:11;55.13;;;38.50;;
795;SDS011;381;48.770;9.188;2022-12-18T00:53:15;42.70;;;32.07;;
795;SDS011;381;48.770;9.188;2022-12-18T00:58:17;53.07;;;37.50;;
795;SDS011;381;48.770;9.188;2022-12-18T01:03:19;51.33;;;37.00;;
795;SDS011;381;48.770;9.188;2022-12-18T01:08:23;52.70;;;36.67;;
795;SDS011;381;48.770;9.188;2022-12-18T01:13:25;49.10;;;34.10;;
795;SDS011;381;48.770;9.188;2022-12-18T01:18:27;52.37;;;37.70;;
795;SDS011;381;48.770;9.188;2022-12-18T01:23:30;55.73;;;38.93;;
795;SDS011;381;48.770;9.188;2022-12-18T01:28:34;51.27;;;35.80;;
795;SDS011;381;48.770;9.188;2022-12-18T01:33:36;47.37;;;35.70;;
795;SDS011;381;48.770;9.188;2022-12-18T01:38:41;43.13;;;32.83;;
795;SDS011;381;48.770;9.188;2022-12-18T01:43:44;45.10;;;33.70;;
795;SDS011;381;48.770;9.188;2022-12-18T01:48:50;45.00;;;33.90;;
795;SDS011;381;48.770;9.188;2022-12-18T01:53:56;48.23;;;36.77;;
795;SDS011;381;48.770;9.188;2022-12-18T01:59:01;47.00;;;36.90;;
795;SDS011;381;48.770;9.188;2022-12-18T02:04:18;46.67;;;35.77;;
795;SDS011;381;48.770;9.188;2022-12-18T02:09:25;44.97;;;35.70;;
795;SDS011;381;48.770;9.188;2022-12-18T02:14:37;48.13;;;35.80;;
795;SDS011;381;48.770;9.188;2022-12-18T02:19:44;49.27;;;38.00;;
795;SDS011;381;48.770;9.188;2022-12-18T02:25:02;52.20;;;37.53;;
795;SDS011;381;48.770;9.188;2022-12-18T02:30:14;50.63;;;38.30;;
795;SDS011;381;48.770;9.188;2022-12-18T02:35:19;50.37;;;41.20;;
795;SDS011;381;48.770;9.188;2022-12-18T02:40:27;48.30;;;38.07;;
795;SDS011;381;48.770;9.188;2022-12-18T02:45:34;47.20;;;36.20;;
795;SDS011;381;48.770;9.188;2022-12-18T02:50:38;47.27;;;36.40;;
795;SDS011;381;48.770;9.188;2022-12-18T02:55:49;47.43;;;35.87;;
795;SDS011;381;48.770;9.188;2022-12-18T03:01:06;44.43;;;35.00;;
795;SDS011;381;48.770;9.188;2022-12-18T03:06:18;42.27;;;34.67;;
795;SDS011;381;48.770;9.188;2022-12-18T03:11:26;40.60;;;32.83;;
795;SDS011;381;48.770;9.188;2022-12-18T03:16:48;40.57;;;32.30;;
795;SDS011;381;48.770;9.188;2022-12-18T03:21:54;38.70;;;30.80;;
795;SDS011;381;48.770;9.188;2022-12-18T03:27:00;38.87;;;29.93;;
795;SDS011;381;48.770;9.188;2022-12-18T03:32:08;39.70;;;30.53;;
795;SDS011;381;48.770;9.188;2022-12-18T03:37:12;40.57;;;29.73;;
795;SDS011;381;48.770;9.188;2022-12-18T03:42:16;40.70;;;30.70;;
795;SDS011;381;48.770;9.188;2022-12-18T03:47:29;42.73;;;30.70;;
795;SDS011;381;48.770;9.188;2022-12-18T03:52:40;40.43;;;29.40;;
795;SDS011;381;48.770;9.188;2022-12-18T03:57:47;44.87;;;31.67;;
795;SDS011;381;48.770;9.188;2022-12-18T04:02:52;38.50;;;29.20;;
795;SDS011;381;48.770;9.188;2022-12-18T04:08:04;38.70;;;26.73;;
795;SDS011;381;48.770;9.188;2022-12-18T04:13:10;42.03;;;28.60;;
795;SDS011;381;48.770;9.188;2022-12-18T04:18:14;40.37;;;29.47;;
795;SDS011;381;48.770;9.188;2022-12-18T04:23:17;39.93;;;27.97;;
795;SDS011;381;48.770;9.188;2022-12-18T04:28:20;41.53;;;29.30;;
795;SDS011;381;48.770;9.188;2022-12-18T04:33:23;37.63;;;27.90;;
795;SDS011;381;48.770;9.188;2022-12-18T04:38:26;37.50;;;27.50;;
795;SDS011;381;48.770;9.188;2022-12-18T04:43:37;41.00;;;29.57;;
795;SDS011;381;48.770;9.188;2022-12-18T04:48:40;39.90;;;28.23;;
795;SDS011;381;48.770;9.188;2022-12-18T04:53:42;41.80;;;27.10;;
795;SDS011;381;48.770;9.188;2022-12-18T04:58:44;36.20;;;26.73;;
795;SDS011;381;48.770;9.188;2022-12-18T05:03:48;41.30;;;28.53;;
795;SDS011;381;48.770;9.188;2022-12-18T05:08:50;39.13;;;28.10;;
795;SDS011;381;48.770;9.188;2022-12-18T05:13:52;40.43;;;28.07;;
795;SDS011;381;48.770;9.188;2022-12-18T05:18:58;41.60;;;30.43;;
795;SDS011;381;48.770;9.188;2022-12-18T05:24:00;36.40;;;26.37;;
795;SDS011;381;48.770;9.188;2022-12-18T05:29:02;35.70;;;26.33;;
795;SDS011;381;48.770;9.188;2022-12-18T05:34:06;38.90;;;27.33;;
795;SDS011;381;48.770;9.188;2022-12-18T05:39:08;37.43;;;25.37;;
795;SDS011;381;48.770;9.188;2022-12-18T05:44:10;40.37;;;26.93;;
795;SDS011;381;48.770;9.188;2022-12-18T05:49:14;36.40;;;26.07;;
795;SDS011;381;48.770;9.188;2022-12-18T05:54:16;38.43;;;26.80;;
795;SDS011;381;48.770;9.188;2022-12-18T05:59:18;35.07;;;25.20;;
795;SDS011;381;48.770;9.188;2022-12-18T06:04:21;34.80;;;24.80;;
795;SDS011;381;48.770;9.188;2022-12-18T06:09:23;39.67;;;26.73;;
795;SDS011;381;48.770;9.188;2022-12-18T06:14:25;38.07;;;26.40;;
795;SDS011;381;48.770;9.188;2022-12-18T06:19:29;34.23;;;23.43;;
795;SDS011;381;48.770;9.188;2022-12-18T06:24:31;34.97;;;24.47;;
795;SDS011;381;48.770;9.188;2022-12-18T06:29:33;36.33;;;25.77;;
795;SDS011;381;48.770;9.188;2022-12-18T06:34:37;35.57;;;26.07;;
795;SDS011;381;48.770;9.188;2022-12-18T06:39:39;34.20;;;23.60;;
795;SDS011;381;48.770;9.188;2022-12-18T06:44:41;32.07;;;22.60;;
795;SDS011;381;48.770;9.188;2022-12-18T06:49:45;37.43;;;23.70;;
795;SDS011;381;48.770;9.188;2022-12-18T06:54:47;33.17;;;24.60;;
795;SDS011;381;48.770;9.188;2022-12-18T06:59:49;32.80;;;26.27;;
795;SDS011;381;48.770;9.188;2022-12-18T07:04:53;34.87;;;26.90;;
795;SDS011;381;48.770;9.188;2022-12-18T07:09:55;33.10;;;25.40;;
795;SDS011;381;48.770;9.188;2022-12-18T07:14:57;33.50;;;24.17;;
795;SDS011;381;48.770;9.188;2022-12-18T07:20:00;35.17;;;27.63;;
795;SDS011;381;48.770;9.188;2022-12-18T07:25:03;35.20;;;26.27;;
795;SDS011;381;48.770;9.188;2022-12-18T07:30:06;35.13;;;26.00;;
795;SDS011;381;48.770;9.188;2022-12-18T07:35:10;36.73;;;27.43;;
795;SDS011;381;48.770;9.188;2022-12-18T07:40:12;33.33;;;25.37;;
795;SDS011;381;48.770;9.188;2022-12-18T07:45:14;37.13;;;26.50;;
795;SDS011;381;48.770;9.188;2022-12-18T07:50:18;53.23;;;36.30;;
795;SDS011;381;48.770;9.188;2022-12-18T07:55:20;43.60;;;29.90;;
795;SDS011;381;48.770;9.188;2022-12-18T08:00:22;33.93;;;25.80;;
795;SDS011;381;48.770;9.188;2022-12-18T08:05:26;38.30;;;28.63;;
795;SDS011;381;48.770;9.188;2022-12-18T08:10:28;40.10;;;28.83;;
795;SDS011;381;48.770;9.188;2022-12-18T08:15:30;38.40;;;28.60;;
795;SDS011;381;48.770;9.188;2022-12-18T08:20:34;31.40;;;23.60;;
795;SDS011;381;48.770;9.188;2022-12-18T08:25:36;35.83;;;28.53;;
795;SDS011;381;48.770;9.188;2022-12-18T08:30:38;36.00;;;28.90;;
795;SDS011;381;48.770;9.188;2022-12-18T08:35:42;32.63;;;28.23;;
795;SDS011;381;48.770;9.188;2022-12-18T08:40:44;32.80;;;26.73;;
795;SDS011;381;48.770;9.188;2022-12-18T08:45:47;40.80;;;31.00;;
795;SDS011;381;48.770;9.188;2022-12-18T08:50:54;38.27;;;30.80;;
795;SDS011;381;48.770;9.188;2022-12-18T08:55:57;37.40;;;30.07;;
795;SDS011;381;48.770;9.188;2022-12-18T09:00:59;36.63;;;30.67;;
795;SDS011;381;48.770;9.188;2022-12-18T09:06:04;35.40;;;29.63;;
795;SDS011;381;48.770;9.188;2022-12-18T09:11:10;33.83;;;28.87;;
795;SDS011;381;48.770;9.188;2022-12-18T09:16:14;41.13;;;33.10;;
795;SDS011;381;48.770;9.188;2022-12-18T09:21:19;41.63;;;32.93;;
795;SDS011;381;48.770;9.188;2022-12-18T09:26:25;46.83;;;35.43;;
795;SDS011;381;48.770;9.188;2022-12-18T09:31:27;44.73;;;34.63;;
795;SDS011;381;48.770;9.188;2022-12-18T09:36:31;43.60;;;33.43;;
795;SDS011;381;48.770;9.188;2022-12-18T09:41:36;45.33;;;36.60;;
795;SDS011;381;48.770;9.188;2022-12-18T09:46:43;48.63;;;36.80;;
795;SDS011;381;48.770;9.188;2022-12-18T09:51:50;49.43;;;37.20;;
795;SDS011;381;48.770;9.188;2022-12-18T09:56:56;46.43;;;35.40;;
795;SDS011;381;48.770;9.188;2022-12-18T10:01:58;51.83;;;38.47;;
795;SDS011;381;48.770;9.188;2022-12-18T10:07:02;51.80;;;37.30;;
795;SDS011;381;48.770;9.188;2022-12-18T10:12:12;46.40;;;36.20;;
795;SDS011;381;48.770;9.188;2022-12-18T10:17:22;47.70;;;36.37;;
795;SDS011;381;48.770;9.188;2022-12-18T10:22:34;40.80;;;32.97;;
795;SDS011;381;48.770;9.188;2022-12-18T10:27:45;41.20;;;30.67;;
795;SDS011;381;48.770;9.188;2022-12-18T10:32:48;39.80;;;30.07;;
795;SDS011;381;48.770;9.188;2022-12-18T10:38:02;38.20;;;29.20;;
795;SDS011;381;48.770;9.188;2022-12-18T10:43:09;37.77;;;28.87;;
795;SDS011;381;48.770;9.188;2022-12-18T10:48:19;40.00;;;29.73;;
795;SDS011;381;48.770;9.188;2022-12-18T10:53:25;44.03;;;31.93;;
795;SDS011;381;48.770;9.188;2022-12-18T10:58:30;37.97;;;28.47;;
795;SDS011;381;48.770;9.188;2022-12-18T11:03:34;40.10;;;30.97;;
795;SDS011;381;48.770;9.188;2022-12-18T11:08:38;40.50;;;29.93;;
795;SDS011;381;48.770;9.188;2022-12-18T11:13:41;42.17;;;30.23;;
795;SDS011;381;48.770;9.188;2022-12-18T11:18:59;40.07;;;30.17;;
795;SDS011;381;48.770;9.188;2022-12-18T11:24:24;43.27;;;30.30;;
795;SDS011;381;48.770;9.188;2022-12-18T11:29:32;44.03;;;31.50;;
795;SDS011;381;48.770;9.188;2022-12-18T11:34:36;40.00;;;29.27;;
795;SDS011;381;48.770;9.188;2022-12-18T11:39:40;40.37;;;30.10;;
795;SDS011;381;48.770;9.188;2022-12-18T11:44:48;37.63;;;27.60;;
795;SDS011;381;48.770;9.188;2022-12-18T11:49:52;36.57;;;27.30;;
795;SDS011;381;48.770;9.188;2022-12-18T11:55:00;37.73;;;27.60;;
795;SDS011;381;48.770;9.188;2022-12-18T12:00:11;37.73;;;29.23;;
795;SDS011;381;48.770;9.188;2022-12-18T12:05:31;38.20;;;28.77;;
795;SDS011;381;48.770;9.188;2022-12-18T12:10:51;37.23;;;27.03;;
795;SDS011;381;48.770;9.188;2022-12-18T12:16:05;39.23;;;28.03;;
795;SDS011;381;48.770;9.188;2022-12-18T12:21:14;37.07;;;27.90;;
795;SDS011;381;48.770;9.188;2022-12-18T12:26:27;35.17;;;25.33;;
795;SDS011;381;48.770;9.188;2022-12-18T12:31:41;40.00;;;28.43;;
795;SDS011;381;48.770;9.188;2022-12-18T12:36:58;37.17;;;26.83;;
795;SDS011;381;48.770;9.188;2022-12-18T12:42:12;42.07;;;31.53;;
795;SDS011;381;48.770;9.188;2022-12-18T12:47:38;42.60;;;30.17;;
795;SDS011;381;48.770;9.188;2022-12-18T12:52:43;41.37;;;29.80;;
795;SDS011;381;48.770;9.188;2022-12-18T12:57:54;39.87;;;29.87;;
795;SDS011;381;48.770;9.188;2022-12-18T13:03:01;39.20;;;29.60;;
795;SDS011;381;48.770;9.188;2022-12-18T13:08:23;36.33;;;27.23;;
795;SDS011;381;48.770;9.188;2022-12-18T13:13:27;37.47;;;28.47;;
795;SDS011;381;48.770;9.188;2022-12-18T13:18:49;40.63;;;30.50;;
795;SDS011;381;48.770;9.188;2022-12-18T13:23:52;41.33;;;28.83;;
795;SDS011;381;48.770;9.188;2022-12-18T13:28:57;40.47;;;30.00;;
795;SDS011;381;48.770;9.188;2022-12-18T13:34:09;41.30;;;30.50;;
795;SDS011;381;48.770;9.188;2022-12-18T13:39:21;39.00;;;29.17;;
795;SDS011;381;48.770;9.188;2022-12-18T13:44:34;48.37;;;35.00;;
795;SDS011;381;48.770;9.188;2022-12-18T13:49:39;46.63;;;32.90;;
795;SDS011;381;48.770;9.188;2022-12-18T13:54:45;41.50;;;30.93;;
795;SDS011;381;48.770;9.188;2022-12-18T13:59:53;42.23;;;32.30;;
795;SDS011;381;48.770;9.188;2022-12-18T14:04:55;44.17;;;32.50;;
795;SDS011;381;48.770;9.188;2022-12-18T14:09:58;44.33;;;32.00;;
795;SDS011;381;48.770;9.188;2022-12-18T14:15:05;44.60;;;31.37;;
795;SDS011;381;48.770;9.188;2022-12-18T14:20:16;48.10;;;35.27;;
795;SDS011;381;48.770;9.188;2022-12-18T14:25:20;42.77;;;31.37;;
795;SDS011;381;48.770;9.188;2022-12-18T14:30:25;43.20;;;34.20;;
795;SDS011;381;48.770;9.188;2022-12-18T14:35:28;50.77;;;33.50;;
795;SDS011;381;48.770;9.188;2022-12-18T14:40:31;48.77;;;34.87;;
795;SDS011;381;48.770;9.188;2022-12-18T14:45:35;47.80;;;34.70;;
795;SDS011;381;48.770;9.188;2022-12-18T14:50:38;49.10;;;35.37;;
795;SDS011;381;48.770;9.188;2022-12-18T14:55:43;47.53;;;35.50;;
795;SDS011;381;48.770;9.188;2022-12-18T15:00:48;44.43;;;33.80;;
795;SDS011;381;48.770;9.188;2022-12-18T15:05:51;44.30;;;32.90;;
795;SDS011;381;48.770;9.188;2022-12-18T15:10:53;48.20;;;35.90;;
795;SDS011;381;48.770;9.188;2022-12-18T15:15:58;49.47;;;36.33;;
795;SDS011;381;48.770;9.188;2022-12-18T15:21:07;48.00;;;35.17;;
795;SDS011;381;48.770;9.188;2022-12-18T15:26:12;49.47;;;36.50;;
795;SDS011;381;48.770;9.188;2022-12-18T15:31:24;54.87;;;39.00;;
795;SDS011;381;48.770;9.188;2022-12-18T15:36:30;57.77;;;40.57;;
795;SDS011;381;48.770;9.188;2022-12-18T15:41:36;52.53;;;38.50;;
795;SDS011;381;48.770;9.188;2022-12-18T15:46:40;52.83;;;39.37;;
795;SDS011;381;48.770;9.188;2022-12-18T15:51:42;51.17;;;38.60;;
795;SDS011;381;48.770;9.188;2022-12-18T15:56:44;47.60;;;36.17;;
795;SDS011;381;48.770;9.188;2022-12-18T16:02:07;50.90;;;37.00;;
795;SDS011;381;48.770;9.188;2022-12-18T16:07:17;53.03;;;39.97;;
795;SDS011;381;48.770;9.188;2022-12-18T16:12:20;50.90;;;36.93;;
795;SDS011;381;48.770;9.188;2022-12-18T16:17:25;48.40;;;37.30;;
795;SDS011;381;48.770;9.188;2022-12-18T16:22:30;52.40;;;40.50;;
795;SDS011;381;48.770;9.188;2022-12-18T16:27:32;53.80;;;40.53;;
795;SDS011;381;48.770;9.188;2022-12-18T16:32:36;57.87;;;41.20;;
795;SDS011;381;48.770;9.188;2022-12-18T16:37:38;58.30;;;43.77;;
795;SDS011;381;48.770;9.188;2022-12-18T16:42:41;58.47;;;43.50;;
795;SDS011;381;48.770;9.188;2022-12-18T16:47:46;55.83;;;39.97;;
795;SDS011;381;48.770;9.188;2022-12-18T16:52:49;55.53;;;40.60;;
795;SDS011;381;48.770;9.188;2022-12-18T16:57:51;55.80;;;43.67;;
795;SDS011;381;48.770;9.188;2022-12-18T17:02:54;55.90;;;41.40;;
795;SDS011;381;48.770;9.188;2022-12-18T17:07:57;53.63;;;39.63;;
795;SDS011;381;48.770;9.188;2022-12-18T17:12:59;50.93;;;38.37;;
795;SDS011;381;48.770;9.188;2022-12-18T17:18:02;51.03;;;36.80;;
795;SDS011;381;48.770;9.188;2022-12-18T17:23:11;46.83;;;35.80;;
795;SDS011;381;48.770;9.188;2022-12-18T17:28:18;47.60;;;35.93;;
795;SDS011;381;48.770;9.188;2022-12-18T17:33:23;47.50;;;36.80;;
795;SDS011;381;48.770;9.188;2022-12-18T17:38:25;47.00;;;36.43;;
795;SDS011;381;48.770;9.188;2022-12-18T17:43:27;49.80;;;35.80;;
795;SDS011;381;48.770;9.188;2022-12-18T17:48:31;46.07;;;34.90;;
795;SDS011;381;48.770;9.188;2022-12-18T17:53:33;44.20;;;32.60;;
795;SDS011;381;48.770;9.188;2022-12-18T17:58:36;50.97;;;37.57;;
795;SDS011;381;48.770;9.188;2022-12-18T18:03:39;52.40;;;37.40;;
795;SDS011;381;48.770;9.188;2022-12-18T18:08:44;39.87;;;32.57;;
795;SDS011;381;48.770;9.188;2022-12-18T18:13:47;52.37;;;39.80;;
795;SDS011;381;48.770;9.188;2022-12-18T18:19:04;44.17;;;32.30;;
795;SDS011;381;48.770;9.188;2022-12-18T18:24:08;41.37;;;31.37;;
795;SDS011;381;48.770;9.188;2022-12-18T18:29:12;43.47;;;33.43;;
795;SDS011;381;48.770;9.188;2022-12-18T18:34:17;46.13;;;33.77;;
795;SDS011;381;48.770;9.188;2022-12-18T18:39:22;58.23;;;38.50;;
795;SDS011;381;48.770;9.188;2022-12-18T18:44:24;55.00;;;39.03;;
795;SDS011;381;48.770;9.188;2022-12-18T18:49:27;41.93;;;32.50;;
795;SDS011;381;48.770;9.188;2022-12-18T18:54:30;43.80;;;31.03;;
795;SDS011;381;48.770;9.188;2022-12-18T18:59:32;49.00;;;35.00;;
795;SDS011;381;48.770;9.188;2022-12-18T19:04:36;41.70;;;30.93;;
795;SDS011;381;48.770;9.188;2022-12-18T19:09:38;42.97;;;31.20;;
795;SDS011;381;48.770;9.188;2022-12-18T19:14:40;39.70;;;30.50;;
795;SDS011;381;48.770;9.188;2022-12-18T19:19:45;40.30;;;29.90;;
795;SDS011;381;48.770;9.188;2022-12-18T19:24:47;40.30;;;30.87;;
795;SDS011;381;48.770;9.188;2022-12-18T19:29:49;38.10;;;29.07;;
795;SDS011;381;48.770;9.188;2022-12-18T19:34:53;40.37;;;29.87;;
795;SDS011;381;48.770;9.188;2022-12-18T19:39:55;44.77;;;32.17;;
795;SDS011;381;48.770;9.188;2022-12-18T19:44:57;44.27;;;33.50;;
795;SDS011;381;48.770;9.188;2022-12-18T19:50:00;43.37;;;31.37;;
795;SDS011;381;48.770;9.188;2022-12-18T19:55:02;43.60;;;32.60;;
795;SDS011;381;48.770;9.188;2022-12-18T20:00:06;45.80;;;34.20;;
795;SDS011;381;48.770;9.188;2022-12-18T20:05:14;46.07;;;32.63;;
795;SDS011;381;48.770;9.188;2022-12-18T20:10:16;45.57;;;32.97;;
795;SDS011;381;48.770;9.188;2022-12-18T20:15:19;42.33;;;31.60;;
795;SDS011;381;48.770;9.188;2022-12-18T20:20:22;48.93;;;34.70;;
795;SDS011;381;48.770;9.188;2022-12-18T20:25:25;45.60;;;32.47;;
795;SDS011;381;48.770;9.188;2022-12-18T20:30:27;41.57;;;32.00;;
795;SDS011;381;48.770;9.188;2022-12-18T20:35:31;49.40;;;36.57;;
795;SDS011;381;48.770;9.188;2022-12-18T20:40:33;40.23;;;29.70;;
795;SDS011;381;48.770;9.188;2022-12-18T20:45:36;44.30;;;31.20;;
795;SDS011;381;48.770;9.188;2022-12-18T20:50:39;40.13;;;29.40;;
795;SDS011;381;48.770;9.188;2022-12-18T20:55:42;44.80;;;32.47;;
795;SDS011;381;48.770;9.188;2022-12-18T21:00:44;43.60;;;31.50;;
795;SDS011;381;48.770;9.188;2022-12-18T21:05:48;49.47;;;37.17;;
795;SDS011;381;48.770;9.188;2022-12-18T21:10:50;49.40;;;34.90;;
795;SDS011;381;48.770;9.188;2022-12-18T21:15:52;50.00;;;36.10;;
795;SDS011;381;48.770;9.188;2022-12-18T21:20:56;49.33;;;35.70;;
795;SDS011;381;48.770;9.188;2022-12-18T21:26:13;48.20;;;35.60;;
795;SDS011;381;48.770;9.188;2022-12-18T21:31:15;47.20;;;35.00;;
795;SDS011;381;48.770;9.188;2022-12-18T21:36:19;43.90;;;34.40;;
795;SDS011;381;48.770;9.188;2022-12-18T21:41:21;47.67;;;35.33;;
795;SDS011;381;48.770;9.188;2022-12-18T21:46:43;47.80;;;34.10;;
795;SDS011;381;48.770;9.188;2022-12-18T21:51:48;47.40;;;34.73;;
795;SDS011;381;48.770;9.188;2022-12-18T21:56:51;48.40;;;35.53;;
795;SDS011;381;48.770;9.188;2022-12-18T22:01:55;43.43;;;33.83;;
795;SDS011;381;48.770;9.188;2022-12-18T22:07:01;42.50;;;32.70;;
795;SDS011;381;48.770;9.188;2022-12-18T22:12:04;45.50;;;34.33;;
795;SDS011;381;48.770;9.188;2022-12-18T22:17:08;46.73;;;36.90;;
795;SDS011;381;48.770;9.188;2022-12-18T22:22:11;44.87;;;33.67;;
795;SDS011;381;48.770;9.188;2022-12-18T22:27:13;49.13;;;36.00;;
795;SDS011;381;48.770;9.188;2022-12-18T22:32:15;90.77;;;54.80;;
795;SDS011;381;48.770;9.188;2022-12-18T22:37:22;51.37;;;36.37;;
795;SDS011;381;48.770;9.188;2022-12-18T22:42:24;48.53;;;36.33;;
795;SDS011;381;48.770;9.188;2022-12-18T22:47:26;49.17;;;35.63;;
795;SDS011;381;48.770;9.188;2022-12-18T22:52:30;48.57;;;36.10;;
795;SDS011;381;48.770;9.188;2022-12-18T22:57:32;50.10;;;36.30;;
795;SDS011;381;48.770;9.188;2022-12-18T23:02:34;52.80;;;39.10;;
795;SDS011;381;48.770;9.188;2022-12-18T23:07:37;45.53;;;34.10;;
795;SDS011;381;48.770;9.188;2022-12-18T23:12:39;47.57;;;36.90;;
795;SDS011;381;48.770;9.188;2022-12-18T23:17:41;50.93;;;34.57;;
795;SDS011;381;48.770;9.188;2022-12-18T23:22:45;46.27;;;33.60;;
795;SDS011;381;48.770;9.188;2022-12-18T23:27:47;48.93;;;34.83;;
795;SDS011;381;48.770;9.188;2022-12-18T23:32:49;50.80;;;36.87;;
795;SDS011;381;48.770;9.188;2022-12-18T23:37:53;44.13;;;33.97;;
795;SDS011;381;48.770;9.188;2022-12-18T23:42:55;50.80;;;35.00;;
795;SDS011;381;48.770;9.188;2022-12-18T23:47:57;48.00;;;35.73;;
795;SDS011;381;48.770;9.188;2022-12-18T23:53:00;49.07;;;35.97;;
795;SDS011;381;48.770;9.188;2022-12-18T23:58:02;44.80;;;34.27;;
